Chantilly, VA (20151)

2:49 AM EST on February 12, 2016 (GMT -0500)
Ridings at Blue Springs | | Change Station
CLOSE
Current Station
Personal Weather Station
Location: Chantilly, VA
Elevation: 303 ft
Nearby Weather Stations

Elev 303 ft 38.90 °N, 77.48 °W | Updated 1 second ago

Partly Cloudy
Partly Cloudy
17.2 °F
Feels Like 17 °F
N
0.0
Wind Variable Wind from SW
Gusts 0.0 mph

Today
High -- | Low -- °F
--% Chance of Precip.
Yesterday
High -- | Low -- °F
Precip. -- in
Pressure 30.33 in
Visibility 10.0 miles
Clouds Scattered Clouds 20000 ft
Windchill 17 °F
Dew Point 8 °F
Humidity 67%
Rainfall 0.00 in
Snow Depth Not available.
7:05 AM 5:43 PM
Waxing Crescent, 18% visible
METAR KIAD 120652Z 27004KT 10SM SCT200 M08/M16 A3032 RMK AO2 SLP271 T10831156
Pressure 30.33 in
Visibility 10.0 miles
Clouds Scattered Clouds 20000 ft
Windchill 17 °F
Dew Point 8 °F
Humidity 67%
Rainfall 0.00 in
Snow Depth Not available.
7:05 AM 5:43 PM
Waxing Crescent, 18% visible
METAR KIAD 120652Z 27004KT 10SM SCT200 M08/M16 A3032 RMK AO2 SLP271 T10831156

10-Day Weather Forecast

Almanac

Astronomy

Feb. 12, 2016 Rise Set
Actual Time
Civil Twilight
Nautical Twilight
Astronomical Twilight
Moon
Length of Visible Light
Length of Day
Tomorrow will be .
, % of the Moon is Illuminated

Today's Extremes

State Highs State Lows

Community

WunderPhotos

Upload Photos

1,892,278 photos uploaded!

WunderBlog® & News

Nearby

Air Quality

  Air Quality AQ Index Pollutant
Not available.

Snow Depth

Station Depth Elevation

Earthquake Activity

City Distance Mag. Time & Date
Minimum magnitude displayed is 2.5.

Coastal Water Temperatures

Place Temperature

Stations

Nearby Weather Stations

Station Location Temp. Windchill Dew Point Humidity Wind Precip. Elev Updated Type
                   

Watches & Warnings

There are currently no watches in effect.